sensor_id;sensor_type;location;lat;lon;timestamp;pressure;altitude;pressure_sealevel;temperature;humidity
80927;BME280;70385;44.538;18.532;2024-03-02T00:00:09;98651.06;;;6.93;100.00
80927;BME280;70385;44.538;18.532;2024-03-02T00:02:48;98649.84;;;6.82;100.00
80927;BME280;70385;44.538;18.532;2024-03-02T00:05:18;98644.69;;;6.80;100.00
80927;BME280;70385;44.538;18.532;2024-03-02T00:07:56;98641.53;;;6.72;100.00
80927;BME280;70385;44.538;18.532;2024-03-02T00:10:27;98657.06;;;6.75;100.00
80927;BME280;70385;44.538;18.532;2024-03-02T00:13:02;98658.38;;;6.63;100.00
80927;BME280;70385;44.538;18.532;2024-03-02T00:15:46;98656.13;;;6.54;100.00
80927;BME280;70385;44.538;18.532;2024-03-02T00:18:19;98664.97;;;6.50;100.00
80927;BME280;70385;44.538;18.532;2024-03-02T00:20:46;98662.53;;;6.46;100.00
80927;BME280;70385;44.538;18.532;2024-03-02T00:23:16;98659.81;;;6.49;100.00
80927;BME280;70385;44.538;18.532;2024-03-02T00:25:44;98669.81;;;6.37;100.00
80927;BME280;70385;44.538;18.532;2024-03-02T00:28:36;98665.47;;;6.15;100.00
80927;BME280;70385;44.538;18.532;2024-03-02T00:33:47;98666.31;;;6.15;100.00
80927;BME280;70385;44.538;18.532;2024-03-02T00:36:16;98668.00;;;6.16;100.00
80927;BME280;70385;44.538;18.532;2024-03-02T00:38:48;98674.03;;;6.17;100.00
80927;BME280;70385;44.538;18.532;2024-03-02T00:41:23;98660.13;;;6.19;100.00
80927;BME280;70385;44.538;18.532;2024-03-02T00:45:33;98669.28;;;6.06;100.00
80927;BME280;70385;44.538;18.532;2024-03-02T00:47:59;98669.16;;;6.09;100.00
80927;BME280;70385;44.538;18.532;2024-03-02T00:50:25;98671.81;;;6.07;100.00
80927;BME280;70385;44.538;18.532;2024-03-02T00:52:51;98674.16;;;6.14;100.00
80927;BME280;70385;44.538;18.532;2024-03-02T00:55:18;98676.03;;;6.10;100.00
80927;BME280;70385;44.538;18.532;2024-03-02T00:57:46;98678.44;;;6.15;100.00
80927;BME280;70385;44.538;18.532;2024-03-02T01:00:13;98676.63;;;6.17;100.00
80927;BME280;70385;44.538;18.532;2024-03-02T01:02:42;98677.47;;;6.19;100.00
80927;BME280;70385;44.538;18.532;2024-03-02T01:05:11;98681.50;;;6.26;100.00
80927;BME280;70385;44.538;18.532;2024-03-02T01:07:38;98682.03;;;6.34;100.00
80927;BME280;70385;44.538;18.532;2024-03-02T01:10:05;98675.16;;;6.33;100.00
80927;BME280;70385;44.538;18.532;2024-03-02T01:12:31;98675.94;;;6.35;100.00
80927;BME280;70385;44.538;18.532;2024-03-02T01:15:00;98679.44;;;6.34;100.00
80927;BME280;70385;44.538;18.532;2024-03-02T01:17:27;98678.72;;;6.30;100.00
80927;BME280;70385;44.538;18.532;2024-03-02T01:19:53;98668.34;;;6.30;100.00
80927;BME280;70385;44.538;18.532;2024-03-02T01:22:18;98678.50;;;6.36;100.00
80927;BME280;70385;44.538;18.532;2024-03-02T01:24:50;98679.28;;;6.38;100.00
80927;BME280;70385;44.538;18.532;2024-03-02T01:27:17;98673.91;;;6.21;100.00
80927;BME280;70385;44.538;18.532;2024-03-02T01:29:44;98672.88;;;6.25;100.00
80927;BME280;70385;44.538;18.532;2024-03-02T01:32:13;98670.38;;;6.22;100.00
80927;BME280;70385;44.538;18.532;2024-03-02T01:34:39;98678.97;;;6.24;100.00
80927;BME280;70385;44.538;18.532;2024-03-02T01:37:05;98671.06;;;6.27;100.00
80927;BME280;70385;44.538;18.532;2024-03-02T01:39:35;98667.00;;;6.20;100.00
80927;BME280;70385;44.538;18.532;2024-03-02T01:42:01;98669.03;;;6.12;100.00
80927;BME280;70385;44.538;18.532;2024-03-02T01:44:27;98675.78;;;6.16;100.00
80927;BME280;70385;44.538;18.532;2024-03-02T01:46:54;98661.53;;;6.04;100.00
80927;BME280;70385;44.538;18.532;2024-03-02T01:49:20;98666.78;;;6.03;100.00
80927;BME280;70385;44.538;18.532;2024-03-02T01:51:47;98659.84;;;6.03;100.00
80927;BME280;70385;44.538;18.532;2024-03-02T01:54:14;98663.28;;;6.04;100.00
80927;BME280;70385;44.538;18.532;2024-03-02T01:56:41;98654.84;;;5.97;100.00
80927;BME280;70385;44.538;18.532;2024-03-02T01:59:07;98655.81;;;5.95;100.00
80927;BME280;70385;44.538;18.532;2024-03-02T02:01:33;98662.06;;;5.89;100.00
80927;BME280;70385;44.538;18.532;2024-03-02T02:03:59;98657.97;;;5.84;100.00
80927;BME280;70385;44.538;18.532;2024-03-02T02:06:33;98660.69;;;5.81;100.00
80927;BME280;70385;44.538;18.532;2024-03-02T02:08:59;98656.81;;;5.67;100.00
80927;BME280;70385;44.538;18.532;2024-03-02T02:11:25;98653.44;;;5.65;100.00
80927;BME280;70385;44.538;18.532;2024-03-02T02:13:53;98654.09;;;5.70;100.00
80927;BME280;70385;44.538;18.532;2024-03-02T02:16:22;98657.59;;;5.69;100.00
80927;BME280;70385;44.538;18.532;2024-03-02T02:18:48;98648.25;;;5.65;100.00
80927;BME280;70385;44.538;18.532;2024-03-02T02:21:15;98658.41;;;5.71;100.00
80927;BME280;70385;44.538;18.532;2024-03-02T02:23:41;98655.19;;;5.65;100.00
80927;BME280;70385;44.538;18.532;2024-03-02T02:26:12;98657.13;;;5.58;100.00
80927;BME280;70385;44.538;18.532;2024-03-02T02:28:38;98646.19;;;5.50;100.00
80927;BME280;70385;44.538;18.532;2024-03-02T02:31:04;98653.25;;;5.46;100.00
80927;BME280;70385;44.538;18.532;2024-03-02T02:33:30;98652.91;;;5.56;100.00
80927;BME280;70385;44.538;18.532;2024-03-02T02:35:57;98652.22;;;5.51;100.00
80927;BME280;70385;44.538;18.532;2024-03-02T02:38:23;98650.25;;;5.57;100.00
80927;BME280;70385;44.538;18.532;2024-03-02T02:40:49;98650.47;;;5.51;100.00
80927;BME280;70385;44.538;18.532;2024-03-02T02:43:15;98657.25;;;5.55;100.00
80927;BME280;70385;44.538;18.532;2024-03-02T02:45:43;98663.28;;;5.56;100.00
80927;BME280;70385;44.538;18.532;2024-03-02T02:48:09;98658.22;;;5.53;100.00
80927;BME280;70385;44.538;18.532;2024-03-02T02:50:34;98659.69;;;5.60;100.00
80927;BME280;70385;44.538;18.532;2024-03-02T02:53:00;98664.97;;;5.57;100.00
80927;BME280;70385;44.538;18.532;2024-03-02T02:55:30;98659.78;;;5.57;100.00
80927;BME280;70385;44.538;18.532;2024-03-02T02:57:59;98671.25;;;5.51;100.00
80927;BME280;70385;44.538;18.532;2024-03-02T03:00:25;98669.53;;;5.50;100.00
80927;BME280;70385;44.538;18.532;2024-03-02T03:02:51;98673.16;;;5.46;100.00
80927;BME280;70385;44.538;18.532;2024-03-02T03:05:18;98680.78;;;5.51;100.00
80927;BME280;70385;44.538;18.532;2024-03-02T03:07:47;98680.81;;;5.49;100.00
80927;BME280;70385;44.538;18.532;2024-03-02T03:10:17;98674.97;;;5.44;100.00
80927;BME280;70385;44.538;18.532;2024-03-02T03:12:43;98665.16;;;5.52;100.00
80927;BME280;70385;44.538;18.532;2024-03-02T03:15:09;98668.59;;;5.53;100.00
80927;BME280;70385;44.538;18.532;2024-03-02T03:17:38;98671.97;;;5.55;100.00
80927;BME280;70385;44.538;18.532;2024-03-02T03:20:05;98653.88;;;5.53;100.00
80927;BME280;70385;44.538;18.532;2024-03-02T03:22:34;98667.50;;;5.60;100.00
80927;BME280;70385;44.538;18.532;2024-03-02T03:25:00;98664.03;;;5.59;100.00
80927;BME280;70385;44.538;18.532;2024-03-02T03:27:30;98663.44;;;5.51;100.00
80927;BME280;70385;44.538;18.532;2024-03-02T03:29:56;98676.31;;;5.54;100.00
80927;BME280;70385;44.538;18.532;2024-03-02T03:32:22;98668.94;;;5.43;100.00
80927;BME280;70385;44.538;18.532;2024-03-02T03:34:48;98678.56;;;5.40;100.00
80927;BME280;70385;44.538;18.532;2024-03-02T03:37:15;98674.81;;;5.24;100.00
80927;BME280;70385;44.538;18.532;2024-03-02T03:39:41;98675.44;;;5.30;100.00
80927;BME280;70385;44.538;18.532;2024-03-02T03:42:06;98684.16;;;5.28;100.00
80927;BME280;70385;44.538;18.532;2024-03-02T03:44:33;98680.09;;;5.21;100.00
80927;BME280;70385;44.538;18.532;2024-03-02T03:46:59;98688.63;;;5.24;100.00
80927;BME280;70385;44.538;18.532;2024-03-02T03:49:27;98680.94;;;5.21;100.00
80927;BME280;70385;44.538;18.532;2024-03-02T03:51:53;98689.34;;;5.28;100.00
80927;BME280;70385;44.538;18.532;2024-03-02T03:54:22;98688.66;;;5.23;100.00
80927;BME280;70385;44.538;18.532;2024-03-02T03:56:48;98677.69;;;5.14;100.00
80927;BME280;70385;44.538;18.532;2024-03-02T03:59:13;98685.41;;;5.16;100.00
80927;BME280;70385;44.538;18.532;2024-03-02T04:01:39;98687.97;;;5.17;100.00
80927;BME280;70385;44.538;18.532;2024-03-02T04:04:05;98692.25;;;5.18;100.00
80927;BME280;70385;44.538;18.532;2024-03-02T04:06:33;98694.03;;;5.16;100.00
80927;BME280;70385;44.538;18.532;2024-03-02T04:08:58;98701.19;;;5.10;100.00
80927;BME280;70385;44.538;18.532;2024-03-02T04:11:24;98704.84;;;5.04;100.00
80927;BME280;70385;44.538;18.532;2024-03-02T04:13:50;98713.53;;;5.03;100.00
80927;BME280;70385;44.538;18.532;2024-03-02T04:16:19;98708.47;;;4.99;100.00
80927;BME280;70385;44.538;18.532;2024-03-02T04:18:45;98706.97;;;4.92;100.00
80927;BME280;70385;44.538;18.532;2024-03-02T04:21:11;98708.66;;;4.93;100.00
80927;BME280;70385;44.538;18.532;2024-03-02T04:23:37;98713.22;;;4.86;100.00
80927;BME280;70385;44.538;18.532;2024-03-02T04:26:04;98714.06;;;4.86;100.00
80927;BME280;70385;44.538;18.532;2024-03-02T04:28:30;98721.00;;;4.86;100.00
80927;BME280;70385;44.538;18.532;2024-03-02T04:30:56;98715.06;;;4.81;100.00
80927;BME280;70385;44.538;18.532;2024-03-02T04:33:23;98730.56;;;4.84;100.00
80927;BME280;70385;44.538;18.532;2024-03-02T04:35:51;98724.53;;;4.83;100.00
80927;BME280;70385;44.538;18.532;2024-03-02T04:38:16;98732.31;;;4.83;100.00
80927;BME280;70385;44.538;18.532;2024-03-02T04:40:42;98731.47;;;4.83;100.00
80927;BME280;70385;44.538;18.532;2024-03-02T04:43:08;98741.94;;;4.78;100.00
80927;BME280;70385;44.538;18.532;2024-03-02T04:45:38;98740.03;;;4.85;100.00
80927;BME280;70385;44.538;18.532;2024-03-02T04:48:04;98738.56;;;4.76;100.00
80927;BME280;70385;44.538;18.532;2024-03-02T04:50:30;98746.28;;;4.78;100.00
80927;BME280;70385;44.538;18.532;2024-03-02T04:52:57;98744.16;;;4.63;100.00
80927;BME280;70385;44.538;18.532;2024-03-02T04:55:24;98743.31;;;4.62;100.00
80927;BME280;70385;44.538;18.532;2024-03-02T04:57:57;98748.59;;;4.59;100.00
80927;BME280;70385;44.538;18.532;2024-03-02T05:00:24;98751.22;;;4.57;100.00
80927;BME280;70385;44.538;18.532;2024-03-02T05:02:50;98751.38;;;4.53;100.00
80927;BME280;70385;44.538;18.532;2024-03-02T05:05:16;98758.16;;;4.57;100.00
80927;BME280;70385;44.538;18.532;2024-03-02T05:07:42;98753.91;;;4.54;100.00
80927;BME280;70385;44.538;18.532;2024-03-02T05:10:10;98759.44;;;4.42;100.00
80927;BME280;70385;44.538;18.532;2024-03-02T05:12:37;98756.31;;;4.33;100.00
80927;BME280;70385;44.538;18.532;2024-03-02T05:15:11;98756.53;;;4.25;100.00
80927;BME280;70385;44.538;18.532;2024-03-02T05:17:39;98763.41;;;4.26;100.00
80927;BME280;70385;44.538;18.532;2024-03-02T05:20:06;98765.16;;;4.24;100.00
80927;BME280;70385;44.538;18.532;2024-03-02T05:22:35;98762.91;;;4.13;100.00
80927;BME280;70385;44.538;18.532;2024-03-02T05:25:01;98764.72;;;4.10;100.00
80927;BME280;70385;44.538;18.532;2024-03-02T05:27:29;98775.97;;;4.09;100.00
80927;BME280;70385;44.538;18.532;2024-03-02T05:29:55;98776.22;;;4.00;100.00
80927;BME280;70385;44.538;18.532;2024-03-02T05:32:21;98774.59;;;3.95;100.00
80927;BME280;70385;44.538;18.532;2024-03-02T05:34:47;98776.13;;;4.03;100.00
80927;BME280;70385;44.538;18.532;2024-03-02T05:37:13;98770.91;;;4.04;100.00
80927;BME280;70385;44.538;18.532;2024-03-02T05:39:40;98775.63;;;4.21;100.00
80927;BME280;70385;44.538;18.532;2024-03-02T05:42:06;98775.72;;;4.18;100.00
80927;BME280;70385;44.538;18.532;2024-03-02T05:44:32;98779.06;;;4.21;100.00
80927;BME280;70385;44.538;18.532;2024-03-02T05:46:58;98782.28;;;4.30;100.00
80927;BME280;70385;44.538;18.532;2024-03-02T05:49:23;98793.59;;;4.27;100.00
80927;BME280;70385;44.538;18.532;2024-03-02T05:51:50;98801.41;;;4.24;100.00
80927;BME280;70385;44.538;18.532;2024-03-02T05:54:17;98806.41;;;4.32;100.00
80927;BME280;70385;44.538;18.532;2024-03-02T06:00:47;98810.91;;;4.54;100.00
80927;BME280;70385;44.538;18.532;2024-03-02T06:03:13;98817.59;;;4.62;100.00
80927;BME280;70385;44.538;18.532;2024-03-02T06:05:40;98817.59;;;4.63;100.00
80927;BME280;70385;44.538;18.532;2024-03-02T06:08:06;98805.47;;;4.64;100.00
80927;BME280;70385;44.538;18.532;2024-03-02T06:10:34;98817.53;;;4.65;100.00
80927;BME280;70385;44.538;18.532;2024-03-02T06:13:00;98813.00;;;4.71;100.00
80927;BME280;70385;44.538;18.532;2024-03-02T06:15:26;98811.97;;;4.77;100.00
80927;BME280;70385;44.538;18.532;2024-03-02T06:17:53;98809.97;;;4.86;100.00
80927;BME280;70385;44.538;18.532;2024-03-02T06:20:19;98813.06;;;4.98;100.00
80927;BME280;70385;44.538;18.532;2024-03-02T06:22:50;98821.31;;;5.10;100.00
80927;BME280;70385;44.538;18.532;2024-03-02T06:25:16;98818.88;;;5.06;100.00
80927;BME280;70385;44.538;18.532;2024-03-02T06:27:43;98817.28;;;5.02;100.00
80927;BME280;70385;44.538;18.532;2024-03-02T06:30:10;98825.84;;;5.04;100.00
80927;BME280;70385;44.538;18.532;2024-03-02T06:32:36;98820.38;;;5.13;100.00
80927;BME280;70385;44.538;18.532;2024-03-02T06:35:02;98826.03;;;5.26;100.00
80927;BME280;70385;44.538;18.532;2024-03-02T06:37:32;98826.09;;;5.24;100.00
80927;BME280;70385;44.538;18.532;2024-03-02T06:39:58;98819.50;;;5.40;100.00
80927;BME280;70385;44.538;18.532;2024-03-02T06:42:40;98816.66;;;5.48;100.00
80927;BME280;70385;44.538;18.532;2024-03-02T06:45:06;98818.13;;;5.55;100.00
80927;BME280;70385;44.538;18.532;2024-03-02T06:47:32;98826.63;;;5.60;100.00
80927;BME280;70385;44.538;18.532;2024-03-02T06:49:59;98816.72;;;5.71;100.00
80927;BME280;70385;44.538;18.532;2024-03-02T06:52:25;98828.84;;;5.71;100.00
80927;BME280;70385;44.538;18.532;2024-03-02T06:54:51;98829.41;;;5.81;100.00
80927;BME280;70385;44.538;18.532;2024-03-02T06:57:17;98834.00;;;5.99;100.00
80927;BME280;70385;44.538;18.532;2024-03-02T06:59:45;98828.59;;;6.05;100.00
80927;BME280;70385;44.538;18.532;2024-03-02T07:02:11;98826.06;;;6.03;100.00
80927;BME280;70385;44.538;18.532;2024-03-02T07:04:39;98837.66;;;6.18;100.00
80927;BME280;70385;44.538;18.532;2024-03-02T07:07:04;98832.47;;;6.18;100.00
80927;BME280;70385;44.538;18.532;2024-03-02T07:09:30;98836.47;;;6.27;100.00
80927;BME280;70385;44.538;18.532;2024-03-02T07:11:56;98835.34;;;6.34;100.00
80927;BME280;70385;44.538;18.532;2024-03-02T07:14:23;98836.09;;;6.37;100.00
80927;BME280;70385;44.538;18.532;2024-03-02T07:17:09;98832.94;;;6.53;100.00
80927;BME280;70385;44.538;18.532;2024-03-02T07:19:37;98843.22;;;6.56;100.00
80927;BME280;70385;44.538;18.532;2024-03-02T07:22:06;98837.81;;;6.62;100.00
80927;BME280;70385;44.538;18.532;2024-03-02T07:24:42;98833.28;;;6.67;100.00
80927;BME280;70385;44.538;18.532;2024-03-02T07:27:09;98824.50;;;6.69;100.00
80927;BME280;70385;44.538;18.532;2024-03-02T07:29:38;98819.03;;;6.77;100.00
80927;BME280;70385;44.538;18.532;2024-03-02T07:32:07;98827.97;;;6.92;100.00
80927;BME280;70385;44.538;18.532;2024-03-02T07:34:34;98830.00;;;7.07;100.00
80927;BME280;70385;44.538;18.532;2024-03-02T07:37:00;98831.53;;;7.35;100.00
80927;BME280;70385;44.538;18.532;2024-03-02T07:39:27;98843.47;;;7.60;100.00
80927;BME280;70385;44.538;18.532;2024-03-02T07:41:53;98838.28;;;7.81;100.00
80927;BME280;70385;44.538;18.532;2024-03-02T07:48:25;98843.22;;;8.07;100.00
80927;BME280;70385;44.538;18.532;2024-03-02T07:51:01;98842.44;;;8.26;100.00
80927;BME280;70385;44.538;18.532;2024-03-02T07:53:30;98845.63;;;8.34;100.00
80927;BME280;70385;44.538;18.532;2024-03-02T07:55:56;98838.66;;;8.53;100.00
80927;BME280;70385;44.538;18.532;2024-03-02T07:58:29;98847.34;;;8.72;100.00
80927;BME280;70385;44.538;18.532;2024-03-02T08:00:57;98844.38;;;8.99;100.00
80927;BME280;70385;44.538;18.532;2024-03-02T08:03:26;98837.91;;;8.89;100.00
80927;BME280;70385;44.538;18.532;2024-03-02T08:05:52;98836.69;;;9.15;100.00
80927;BME280;70385;44.538;18.532;2024-03-02T08:08:21;98841.03;;;9.33;100.00
80927;BME280;70385;44.538;18.532;2024-03-02T08:10:47;98851.50;;;9.14;100.00
80927;BME280;70385;44.538;18.532;2024-03-02T08:13:14;98835.28;;;9.26;100.00
80927;BME280;70385;44.538;18.532;2024-03-02T08:15:42;98836.81;;;9.66;100.00
80927;BME280;70385;44.538;18.532;2024-03-02T08:18:09;98832.44;;;9.84;100.00
80927;BME280;70385;44.538;18.532;2024-03-02T08:20:35;98831.34;;;10.06;100.00
80927;BME280;70385;44.538;18.532;2024-03-02T08:23:03;98825.00;;;10.44;100.00
80927;BME280;70385;44.538;18.532;2024-03-02T08:25:29;98818.03;;;10.60;100.00
80927;BME280;70385;44.538;18.532;2024-03-02T08:27:55;98824.72;;;10.82;100.00
80927;BME280;70385;44.538;18.532;2024-03-02T08:30:23;98826.00;;;11.06;100.00
80927;BME280;70385;44.538;18.532;2024-03-02T08:32:49;98832.19;;;11.21;100.00
80927;BME280;70385;44.538;18.532;2024-03-02T08:35:15;98824.44;;;11.34;100.00
80927;BME280;70385;44.538;18.532;2024-03-02T08:37:42;98831.28;;;11.52;100.00
80927;BME280;70385;44.538;18.532;2024-03-02T08:40:10;98823.59;;;11.33;100.00
80927;BME280;70385;44.538;18.532;2024-03-02T08:42:36;98838.25;;;11.21;100.00
80927;BME280;70385;44.538;18.532;2024-03-02T08:45:02;98837.50;;;11.65;100.00
80927;BME280;70385;44.538;18.532;2024-03-02T08:47:30;98825.84;;;12.01;100.00
80927;BME280;70385;44.538;18.532;2024-03-02T08:49:55;98818.94;;;12.00;99.11
80927;BME280;70385;44.538;18.532;2024-03-02T08:52:21;98825.59;;;12.20;96.92
80927;BME280;70385;44.538;18.532;2024-03-02T08:58:53;98821.94;;;12.22;95.81
80927;BME280;70385;44.538;18.532;2024-03-02T09:01:19;98823.06;;;12.32;94.09
80927;BME280;70385;44.538;18.532;2024-03-02T09:03:45;98825.72;;;12.61;93.51
80927;BME280;70385;44.538;18.532;2024-03-02T09:10:18;98819.69;;;12.87;85.27
80927;BME280;70385;44.538;18.532;2024-03-02T09:12:44;98817.50;;;13.08;81.08
80927;BME280;70385;44.538;18.532;2024-03-02T09:15:11;98819.28;;;13.07;79.78
80927;BME280;70385;44.538;18.532;2024-03-02T09:17:39;98814.22;;;13.19;77.83
80927;BME280;70385;44.538;18.532;2024-03-02T09:20:05;98814.94;;;13.35;75.71
80927;BME280;70385;44.538;18.532;2024-03-02T09:22:32;98816.28;;;13.67;72.61
80927;BME280;70385;44.538;18.532;2024-03-02T09:25:00;98815.50;;;13.92;72.55
80927;BME280;70385;44.538;18.532;2024-03-02T09:27:25;98811.94;;;14.06;70.76
80927;BME280;70385;44.538;18.532;2024-03-02T09:29:51;98810.28;;;14.43;69.30
80927;BME280;70385;44.538;18.532;2024-03-02T09:32:30;98806.16;;;14.26;67.45
80927;BME280;70385;44.538;18.532;2024-03-02T09:34:59;98802.78;;;14.24;66.23
80927;BME280;70385;44.538;18.532;2024-03-02T09:37:33;98795.09;;;14.21;60.31
80927;BME280;70385;44.538;18.532;2024-03-02T09:40:21;98800.16;;;14.75;60.24
80927;BME280;70385;44.538;18.532;2024-03-02T09:42:51;98797.13;;;14.56;57.16
80927;BME280;70385;44.538;18.532;2024-03-02T09:45:24;98791.34;;;14.51;54.14
80927;BME280;70385;44.538;18.532;2024-03-02T09:47:52;98797.50;;;14.88;54.17
80927;BME280;70385;44.538;18.532;2024-03-02T09:50:18;98797.78;;;14.96;53.67
80927;BME280;70385;44.538;18.532;2024-03-02T09:52:48;98796.81;;;15.10;54.35
80927;BME280;70385;44.538;18.532;2024-03-02T09:55:16;98794.75;;;15.26;54.18
80927;BME280;70385;44.538;18.532;2024-03-02T09:57:57;98791.81;;;15.18;53.52
80927;BME280;70385;44.538;18.532;2024-03-02T10:00:23;98796.72;;;14.99;54.85
80927;BME280;70385;44.538;18.532;2024-03-02T10:02:53;98797.00;;;15.43;53.61
80927;BME280;70385;44.538;18.532;2024-03-02T10:05:25;98792.00;;;15.28;53.93
80927;BME280;70385;44.538;18.532;2024-03-02T10:08:03;98782.88;;;15.79;51.98
80927;BME280;70385;44.538;18.532;2024-03-02T10:10:40;98788.84;;;16.05;50.50
80927;BME280;70385;44.538;18.532;2024-03-02T10:13:09;98783.09;;;16.34;51.40
80927;BME280;70385;44.538;18.532;2024-03-02T10:16:13;98795.13;;;16.49;49.79
80927;BME280;70385;44.538;18.532;2024-03-02T10:18:42;98788.50;;;16.32;50.54
80927;BME280;70385;44.538;18.532;2024-03-02T10:21:13;98793.78;;;16.55;49.68
80927;BME280;70385;44.538;18.532;2024-03-02T10:23:47;98788.84;;;16.17;50.15
80927;BME280;70385;44.538;18.532;2024-03-02T10:26:17;98784.44;;;16.73;49.38
80927;BME280;70385;44.538;18.532;2024-03-02T10:28:47;98779.16;;;16.73;48.54
80927;BME280;70385;44.538;18.532;2024-03-02T10:31:14;98786.50;;;16.58;48.15
80927;BME280;70385;44.538;18.532;2024-03-02T10:33:40;98778.06;;;16.64;47.65
80927;BME280;70385;44.538;18.532;2024-03-02T10:36:07;98777.13;;;16.65;46.91
80927;BME280;70385;44.538;18.532;2024-03-02T10:38:33;98764.47;;;16.13;47.09
80927;BME280;70385;44.538;18.532;2024-03-02T10:41:05;98769.88;;;16.12;47.10
80927;BME280;70385;44.538;18.532;2024-03-02T10:43:32;98765.56;;;16.11;46.76
80927;BME280;70385;44.538;18.532;2024-03-02T10:45:59;98770.84;;;16.55;46.48
80927;BME280;70385;44.538;18.532;2024-03-02T10:52:20;98777.59;;;16.26;45.82
80927;BME280;70385;44.538;18.532;2024-03-02T10:54:49;98775.94;;;16.58;45.71
80927;BME280;70385;44.538;18.532;2024-03-02T10:57:19;98769.19;;;16.77;45.98
80927;BME280;70385;44.538;18.532;2024-03-02T10:59:56;98772.22;;;16.72;45.14
80927;BME280;70385;44.538;18.532;2024-03-02T11:02:28;98756.72;;;16.67;45.97
80927;BME280;70385;44.538;18.532;2024-03-02T11:05:00;98751.72;;;17.08;43.73
80927;BME280;70385;44.538;18.532;2024-03-02T11:07:35;98753.88;;;17.46;43.48
80927;BME280;70385;44.538;18.532;2024-03-02T11:10:12;98740.81;;;17.33;43.63
80927;BME280;70385;44.538;18.532;2024-03-02T11:12:53;98749.38;;;17.37;43.05
80927;BME280;70385;44.538;18.532;2024-03-02T11:15:25;98740.66;;;17.46;41.07
80927;BME280;70385;44.538;18.532;2024-03-02T11:17:55;98739.56;;;17.48;41.31
80927;BME280;70385;44.538;18.532;2024-03-02T11:20:23;98741.38;;;17.48;40.67
80927;BME280;70385;44.538;18.532;2024-03-02T11:22:54;98748.22;;;17.82;41.33
80927;BME280;70385;44.538;18.532;2024-03-02T11:25:27;98737.03;;;17.79;40.38
80927;BME280;70385;44.538;18.532;2024-03-02T11:33:06;98730.91;;;17.78;40.17
80927;BME280;70385;44.538;18.532;2024-03-02T11:38:02;98722.88;;;18.41;38.34
80927;BME280;70385;44.538;18.532;2024-03-02T11:40:29;98733.56;;;17.99;39.28
80927;BME280;70385;44.538;18.532;2024-03-02T11:42:59;98721.75;;;18.34;40.28
80927;BME280;70385;44.538;18.532;2024-03-02T11:45:26;98720.00;;;18.23;40.00
80927;BME280;70385;44.538;18.532;2024-03-02T11:47:56;98709.06;;;18.68;38.72
80927;BME280;70385;44.538;18.532;2024-03-02T11:50:57;98712.63;;;18.57;37.82
80927;BME280;70385;44.538;18.532;2024-03-02T11:53:23;98709.00;;;18.58;38.28
80927;BME280;70385;44.538;18.532;2024-03-02T11:55:52;98713.91;;;18.63;38.42
80927;BME280;70385;44.538;18.532;2024-03-02T11:58:18;98717.38;;;18.23;38.98
80927;BME280;70385;44.538;18.532;2024-03-02T12:00:50;98702.53;;;18.11;37.65
80927;BME280;70385;44.538;18.532;2024-03-02T12:03:16;98716.25;;;17.95;39.18
80927;BME280;70385;44.538;18.532;2024-03-02T12:05:43;98714.41;;;18.16;39.44
80927;BME280;70385;44.538;18.532;2024-03-02T12:08:11;98711.72;;;18.07;38.15
80927;BME280;70385;44.538;18.532;2024-03-02T12:10:39;98701.53;;;18.02;38.77
80927;BME280;70385;44.538;18.532;2024-03-02T12:13:06;98704.31;;;18.01;38.27
80927;BME280;70385;44.538;18.532;2024-03-02T12:15:38;98705.56;;;18.06;38.23
80927;BME280;70385;44.538;18.532;2024-03-02T12:18:05;98695.22;;;18.24;38.06
80927;BME280;70385;44.538;18.532;2024-03-02T12:20:33;98700.16;;;18.88;36.82
80927;BME280;70385;44.538;18.532;2024-03-02T12:23:04;98704.47;;;18.79;36.44
80927;BME280;70385;44.538;18.532;2024-03-02T12:25:31;98696.13;;;18.84;37.18
80927;BME280;70385;44.538;18.532;2024-03-02T12:28:01;98702.13;;;18.86;37.08
80927;BME280;70385;44.538;18.532;2024-03-02T12:30:30;98693.22;;;19.06;36.35
80927;BME280;70385;44.538;18.532;2024-03-02T12:32:58;98690.69;;;18.86;36.16
80927;BME280;70385;44.538;18.532;2024-03-02T12:35:24;98690.28;;;19.19;36.46
80927;BME280;70385;44.538;18.532;2024-03-02T12:37:52;98692.16;;;18.69;37.80
80927;BME280;70385;44.538;18.532;2024-03-02T12:40:19;98690.72;;;18.95;35.55
80927;BME280;70385;44.538;18.532;2024-03-02T12:42:49;98689.88;;;19.24;35.08
80927;BME280;70385;44.538;18.532;2024-03-02T12:45:15;98678.31;;;19.15;36.42
80927;BME280;70385;44.538;18.532;2024-03-02T12:47:42;98695.00;;;18.77;36.22
80927;BME280;70385;44.538;18.532;2024-03-02T12:50:17;98699.41;;;18.67;36.48
80927;BME280;70385;44.538;18.532;2024-03-02T12:52:52;98697.81;;;18.95;35.17
80927;BME280;70385;44.538;18.532;2024-03-02T12:55:20;98687.00;;;18.27;36.12
80927;BME280;70385;44.538;18.532;2024-03-02T12:57:52;98689.75;;;18.56;35.70
80927;BME280;70385;44.538;18.532;2024-03-02T13:00:20;98682.06;;;19.03;34.71
80927;BME280;70385;44.538;18.532;2024-03-02T13:02:49;98684.28;;;19.46;34.12
80927;BME280;70385;44.538;18.532;2024-03-02T13:05:17;98686.81;;;19.19;35.99
80927;BME280;70385;44.538;18.532;2024-03-02T13:07:43;98680.38;;;18.92;35.99
80927;BME280;70385;44.538;18.532;2024-03-02T13:10:10;98678.31;;;18.56;36.72
80927;BME280;70385;44.538;18.532;2024-03-02T13:12:38;98686.06;;;18.38;37.43
80927;BME280;70385;44.538;18.532;2024-03-02T13:15:05;98678.47;;;17.93;37.61
80927;BME280;70385;44.538;18.532;2024-03-02T13:17:31;98673.44;;;17.90;37.01
80927;BME280;70385;44.538;18.532;2024-03-02T13:20:00;98678.91;;;18.29;37.48
80927;BME280;70385;44.538;18.532;2024-03-02T13:22:26;98671.38;;;18.64;36.50
80927;BME280;70385;44.538;18.532;2024-03-02T13:24:54;98668.38;;;19.07;36.28
80927;BME280;70385;44.538;18.532;2024-03-02T13:27:20;98657.59;;;19.77;34.84